Time;durP1;ratioP1;P1;durP2;ratioP2;P2;SDS_P1;SDS_P2;PMS_P1;PMS_P2;Temp;Humidity;BMP_temperature;BMP_pressure;BME280_temperature;BME280_humidity;BME280_pressure;Samples;Min_cycle;Max_cycle;Signal;HPM_P1;HPM_P2
2022/01/05 00:02:15;;;;;;;385.05;207.73;;;;;;;;;;5041282;28;20049;-80
2022/01/05 00:05:00;;;;;;;418.17;245.27;;;;;;;;;;5027201;28;20042;-79
2022/01/05 00:07:45;;;;;;;422.83;248.82;;;;;;;;;;5034977;28;20046;-79
2022/01/05 00:10:31;;;;;;;428.77;253.00;;;;;;;;;;5041057;28;20053;-79
2022/01/05 00:13:16;;;;;;;401.30;239.70;;;;;;;;;;5041269;28;20045;-77
2022/01/05 00:16:02;;;;;;;418.70;240.43;;;;;;;;;;5034433;28;20050;-78
2022/01/05 00:18:47;;;;;;;422.92;240.90;;;;;;;;;;5041706;28;20045;-79
2022/01/05 00:21:33;;;;;;;394.15;218.18;;;;;;;;;;5041575;28;20049;-78
2022/01/05 00:24:21;;;;;;;396.30;222.25;;;;;;;;;;5026375;28;20053;-78
2022/01/05 00:27:06;;;;;;;492.70;296.05;;;;;;;;;;5034940;28;20050;-79
2022/01/05 00:29:52;;;;;;;540.17;341.10;;;;;;;;;;5034302;28;20041;-78
2022/01/05 00:32:37;;;;;;;513.70;317.67;;;;;;;;;;5041440;28;20046;-78
2022/01/05 00:35:23;;;;;;;503.40;301.00;;;;;;;;;;5042826;28;20079;-80
2022/01/05 00:38:08;;;;;;;516.78;306.77;;;;;;;;;;5026520;28;20053;-83
2022/01/05 00:40:53;;;;;;;521.13;323.27;;;;;;;;;;5044602;28;20498;-81
2022/01/05 00:43:39;;;;;;;482.30;294.73;;;;;;;;;;5034798;28;20049;-79
2022/01/05 00:46:25;;;;;;;490.65;289.27;;;;;;;;;;5034084;28;20041;-79
2022/01/05 00:49:10;;;;;;;469.83;281.00;;;;;;;;;;5034323;28;20041;-78
2022/01/05 00:51:56;;;;;;;470.30;277.92;;;;;;;;;;5034083;28;20041;-79
2022/01/05 00:54:41;;;;;;;452.65;267.88;;;;;;;;;;5040833;28;20480;-79
2022/01/05 00:57:26;;;;;;;349.85;172.07;;;;;;;;;;5040943;28;20045;-78
2022/01/05 01:00:13;;;;;;;420.00;231.80;;;;;;;;;;5040996;28;20050;-79
2022/01/05 01:02:58;;;;;;;391.27;215.95;;;;;;;;;;5041324;28;20050;-78
2022/01/05 01:05:43;;;;;;;399.15;221.80;;;;;;;;;;5043045;28;20053;-79
2022/01/05 01:08:31;;;;;;;391.77;217.85;;;;;;;;;;5036381;28;20366;-80
2022/01/05 01:11:16;;;;;;;388.48;210.48;;;;;;;;;;5034160;28;20045;-79
2022/01/05 01:14:02;;;;;;;388.77;213.65;;;;;;;;;;5040978;28;20042;-79
2022/01/05 01:16:48;;;;;;;375.58;197.18;;;;;;;;;;5033898;28;20041;-77
2022/01/05 01:19:33;;;;;;;387.58;210.82;;;;;;;;;;5039808;28;20049;-78
2022/01/05 01:22:19;;;;;;;380.30;210.93;;;;;;;;;;5034068;28;20396;-80
2022/01/05 01:25:06;;;;;;;367.33;200.52;;;;;;;;;;5040659;28;20046;-79
2022/01/05 01:27:51;;;;;;;357.50;192.30;;;;;;;;;;5034336;28;20405;-80
2022/01/05 01:30:36;;;;;;;354.73;192.57;;;;;;;;;;5040367;28;20041;-79
2022/01/05 01:33:22;;;;;;;331.77;175.07;;;;;;;;;;5039635;28;20049;-79
2022/01/05 01:36:08;;;;;;;316.42;166.77;;;;;;;;;;5033661;28;20049;-80
2022/01/05 01:38:53;;;;;;;334.08;170.68;;;;;;;;;;5037044;28;20397;-79
2022/01/05 01:41:39;;;;;;;345.30;174.85;;;;;;;;;;5040208;28;20046;-79
2022/01/05 01:44:25;;;;;;;329.67;162.13;;;;;;;;;;5040270;28;20057;-79
2022/01/05 01:47:10;;;;;;;309.45;159.60;;;;;;;;;;5033385;28;20061;-79
2022/01/05 01:49:55;;;;;;;301.23;156.15;;;;;;;;;;5040283;28;20045;-80
2022/01/05 01:52:40;;;;;;;301.98;151.48;;;;;;;;;;5033300;28;20468;-79
2022/01/05 01:55:26;;;;;;;287.25;153.65;;;;;;;;;;5018491;28;20045;-79
2022/01/05 01:58:10;;;;;;;305.95;153.77;;;;;;;;;;5039835;28;20054;-79
2022/01/05 02:00:56;;;;;;;263.00;135.57;;;;;;;;;;5032980;28;20046;-80
2022/01/05 02:03:42;;;;;;;266.55;140.27;;;;;;;;;;5033675;28;20049;-79
2022/01/05 02:06:27;;;;;;;274.33;137.02;;;;;;;;;;5033966;28;20053;-80
2022/01/05 02:09:13;;;;;;;270.67;139.65;;;;;;;;;;5039571;28;20045;-79
2022/01/05 02:11:59;;;;;;;32.20;19.55;;;;;;;;;;5033371;28;20473;-80
2022/01/05 02:14:44;;;;;;;252.35;132.80;;;;;;;;;;5033312;28;20049;-79
2022/01/05 02:17:49;;;;;;;280.42;140.10;;;;;;;;;;5039997;28;20049;-80
2022/01/05 02:20:34;;;;;;;301.40;148.85;;;;;;;;;;5039793;28;20045;-79
2022/01/05 02:23:19;;;;;;;274.85;133.57;;;;;;;;;;5024684;28;20053;-79
2022/01/05 02:26:05;;;;;;;250.82;128.45;;;;;;;;;;5040090;28;20049;-79
2022/01/05 02:28:51;;;;;;;145.20;72.50;;;;;;;;;;5033113;28;20045;-80
2022/01/05 02:31:37;;;;;;;232.23;121.00;;;;;;;;;;5041554;28;20053;-79
2022/01/05 02:34:22;;;;;;;214.05;109.72;;;;;;;;;;5036569;28;20038;-79
2022/01/05 02:37:08;;;;;;;218.75;115.55;;;;;;;;;;5042915;28;20054;-80
2022/01/05 02:39:53;;;;;;;224.95;117.35;;;;;;;;;;5037649;28;20373;-79
2022/01/05 02:42:39;;;;;;;269.02;137.50;;;;;;;;;;5036830;28;20045;-79
2022/01/05 02:45:25;;;;;;;248.90;129.95;;;;;;;;;;5043079;28;20045;-81
2022/01/05 02:48:10;;;;;;;241.05;123.80;;;;;;;;;;5043325;28;20041;-80
2022/01/05 02:50:57;;;;;;;228.57;121.63;;;;;;;;;;5036316;28;20396;-79
2022/01/05 02:53:43;;;;;;;276.92;144.57;;;;;;;;;;5043035;28;20045;-80
2022/01/05 02:56:28;;;;;;;256.83;135.00;;;;;;;;;;5042726;28;20468;-80
2022/01/05 02:59:13;;;;;;;264.27;140.95;;;;;;;;;;5036603;28;20041;-79
2022/01/05 03:01:59;;;;;;;259.75;133.18;;;;;;;;;;5043011;28;20045;-80
2022/01/05 03:04:44;;;;;;;260.95;138.02;;;;;;;;;;5035938;28;20049;-80
2022/01/05 03:07:31;;;;;;;243.48;122.05;;;;;;;;;;5036408;28;20381;-79
2022/01/05 03:10:18;;;;;;;247.82;128.65;;;;;;;;;;5042517;28;20045;-80
2022/01/05 03:13:04;;;;;;;238.80;131.02;;;;;;;;;;5036266;28;20049;-80
2022/01/05 03:15:51;;;;;;;317.65;145.68;;;;;;;;;;5027803;28;20053;-79
2022/01/05 03:18:36;;;;;;;265.55;130.05;;;;;;;;;;5042466;28;20071;-78
2022/01/05 03:21:22;;;;;;;255.13;131.93;;;;;;;;;;5043031;28;20365;-79
2022/01/05 03:24:10;;;;;;;280.40;145.48;;;;;;;;;;5042467;28;20049;-79
2022/01/05 03:26:55;;;;;;;294.02;147.05;;;;;;;;;;5042993;28;20504;-78
2022/01/05 03:29:41;;;;;;;269.83;135.85;;;;;;;;;;5042747;28;20049;-79
2022/01/05 03:32:34;;;;;;;282.63;150.45;;;;;;;;;;5041825;28;20045;-80
2022/01/05 03:35:20;;;;;;;299.35;153.48;;;;;;;;;;5041681;28;20045;-79
2022/01/05 03:38:06;;;;;;;307.48;153.73;;;;;;;;;;5040972;28;20054;-79
2022/01/05 03:40:51;;;;;;;311.38;162.38;;;;;;;;;;5042378;28;20053;-80
2022/01/05 03:43:36;;;;;;;326.83;169.02;;;;;;;;;;5034998;28;20049;-79
2022/01/05 03:46:22;;;;;;;333.88;174.07;;;;;;;;;;5020703;28;20038;-79
2022/01/05 03:49:08;;;;;;;351.70;181.88;;;;;;;;;;5035881;28;20038;-80
2022/01/05 03:51:53;;;;;;;312.73;152.02;;;;;;;;;;5026940;28;20053;-81
2022/01/05 03:54:38;;;;;;;338.02;181.48;;;;;;;;;;5041564;28;20424;-79
2022/01/05 03:57:25;;;;;;;322.25;174.00;;;;;;;;;;5042616;28;20045;-80
2022/01/05 04:00:11;;;;;;;313.02;163.85;;;;;;;;;;5035251;28;20041;-80
2022/01/05 04:02:59;;;;;;;237.13;120.80;;;;;;;;;;5038148;28;20049;-79
2022/01/05 04:05:44;;;;;;;268.35;135.13;;;;;;;;;;5044836;28;20049;-79
2022/01/05 04:08:30;;;;;;;259.30;133.57;;;;;;;;;;5041579;28;20041;-79
2022/01/05 04:11:16;;;;;;;282.80;139.68;;;;;;;;;;5035159;28;20370;-79
2022/01/05 04:14:01;;;;;;;257.45;128.30;;;;;;;;;;5041164;28;20504;-80
2022/01/05 04:16:47;;;;;;;251.63;129.25;;;;;;;;;;5041620;28;20053;-79
2022/01/05 04:19:32;;;;;;;240.45;123.75;;;;;;;;;;5041659;28;20041;-80
2022/01/05 04:22:18;;;;;;;242.73;122.80;;;;;;;;;;5041112;28;20049;-79
2022/01/05 04:25:04;;;;;;;246.82;123.30;;;;;;;;;;5034790;28;20037;-79
2022/01/05 04:27:49;;;;;;;246.18;127.45;;;;;;;;;;5034891;28;20046;-79
2022/01/05 04:30:35;;;;;;;245.15;123.75;;;;;;;;;;5041160;28;20049;-79
2022/01/05 04:33:20;;;;;;;252.90;131.77;;;;;;;;;;5057870;28;20041;-79
2022/01/05 04:36:07;;;;;;;248.95;130.32;;;;;;;;;;5056610;28;20388;-79
2022/01/05 04:38:53;;;;;;;257.63;125.43;;;;;;;;;;5052178;28;20045;-78
2022/01/05 04:41:38;;;;;;;270.73;137.80;;;;;;;;;;5050635;28;20045;-81
2022/01/05 04:44:23;;;;;;;228.77;114.93;;;;;;;;;;5049103;28;20053;-80
2022/01/05 04:47:09;;;;;;;246.18;131.55;;;;;;;;;;5061002;28;20052;-79
2022/01/05 04:49:55;;;;;;;249.65;136.65;;;;;;;;;;5053629;28;20044;-79
2022/01/05 04:52:41;;;;;;;152.38;77.80;;;;;;;;;;5049389;28;20476;-79
2022/01/05 04:55:27;;;;;;;131.88;63.65;;;;;;;;;;5024711;28;20412;-79
2022/01/05 04:58:13;;;;;;;241.90;120.30;;;;;;;;;;5040808;28;20045;-79
2022/01/05 05:00:58;;;;;;;240.32;126.28;;;;;;;;;;5040362;28;20401;-79
2022/01/05 05:03:44;;;;;;;251.50;130.20;;;;;;;;;;5048505;28;20049;-79
2022/01/05 05:06:29;;;;;;;243.85;131.50;;;;;;;;;;5041109;28;20472;-79
2022/01/05 05:09:15;;;;;;;256.48;133.63;;;;;;;;;;5055005;28;20052;-80
2022/01/05 05:12:00;;;;;;;263.05;135.95;;;;;;;;;;5045460;28;20040;-79
2022/01/05 05:14:46;;;;;;;245.77;131.73;;;;;;;;;;5050237;28;20041;-80
2022/01/05 05:17:32;;;;;;;263.23;139.00;;;;;;;;;;5046899;28;20045;-80
2022/01/05 05:20:17;;;;;;;252.75;133.82;;;;;;;;;;5060880;28;20045;-80
2022/01/05 05:23:03;;;;;;;253.23;127.03;;;;;;;;;;5060721;28;20049;-80
2022/01/05 05:25:48;;;;;;;254.98;128.45;;;;;;;;;;5053742;28;20033;-79
2022/01/05 05:28:34;;;;;;;250.13;129.15;;;;;;;;;;5060490;28;20402;-79
2022/01/05 05:31:20;;;;;;;292.67;155.75;;;;;;;;;;5060049;28;20045;-79
2022/01/05 05:34:05;;;;;;;281.27;148.35;;;;;;;;;;5060377;28;20045;-78
2022/01/05 05:36:51;;;;;;;259.00;140.05;;;;;;;;;;5059740;28;20048;-80
2022/01/05 05:39:36;;;;;;;268.80;139.98;;;;;;;;;;5055182;28;20361;-79
2022/01/05 05:42:21;;;;;;;261.85;134.18;;;;;;;;;;5060575;28;20053;-79
2022/01/05 05:45:07;;;;;;;276.15;144.20;;;;;;;;;;5059852;28;20049;-79
2022/01/05 05:47:52;;;;;;;299.65;157.35;;;;;;;;;;5045189;28;20384;-79
2022/01/05 05:50:38;;;;;;;284.80;145.60;;;;;;;;;;5060112;28;20053;-79
2022/01/05 05:53:23;;;;;;;287.67;152.10;;;;;;;;;;5059795;28;20049;-80
2022/01/05 05:56:09;;;;;;;295.90;151.38;;;;;;;;;;5060324;28;20377;-80
2022/01/05 05:58:54;;;;;;;261.10;134.70;;;;;;;;;;5059904;28;20048;-79
2022/01/05 06:01:40;;;;;;;289.05;150.52;;;;;;;;;;5053754;28;20472;-80
2022/01/05 06:04:26;;;;;;;294.70;148.80;;;;;;;;;;5044121;28;20052;-79
2022/01/05 06:07:11;;;;;;;278.92;141.38;;;;;;;;;;5061872;28;20045;-80
2022/01/05 06:09:58;;;;;;;269.13;140.15;;;;;;;;;;5063579;28;20491;-80
2022/01/05 06:12:44;;;;;;;475.40;260.92;;;;;;;;;;5063691;28;20049;-80
2022/01/05 06:15:32;;;;;;;269.38;136.07;;;;;;;;;;5054720;28;20037;-79
2022/01/05 06:18:18;;;;;;;261.38;137.40;;;;;;;;;;5065792;28;20044;-80
2022/01/05 06:21:03;;;;;;;336.70;162.20;;;;;;;;;;5061989;28;20045;-78
2022/01/05 06:23:49;;;;;;;327.38;163.27;;;;;;;;;;5068052;28;20468;-78
2022/01/05 06:26:34;;;;;;;316.92;166.68;;;;;;;;;;5063200;28;20048;-77
2022/01/05 06:29:20;;;;;;;326.83;167.98;;;;;;;;;;5063818;28;20480;-79
2022/01/05 06:32:06;;;;;;;299.50;158.73;;;;;;;;;;5063877;28;20045;-78
2022/01/05 06:34:51;;;;;;;271.73;131.18;;;;;;;;;;5047940;28;20045;-81
2022/01/05 06:37:36;;;;;;;329.88;170.40;;;;;;;;;;5063717;28;20045;-80
2022/01/05 06:40:23;;;;;;;333.27;173.95;;;;;;;;;;5062775;28;20045;-80
2022/01/05 06:43:09;;;;;;;279.02;152.38;;;;;;;;;;5062680;28;20040;-80
2022/01/05 06:45:54;;;;;;;286.08;149.90;;;;;;;;;;5062334;28;20041;-80
2022/01/05 06:48:40;;;;;;;291.45;154.90;;;;;;;;;;5055542;28;20034;-80
2022/01/05 06:51:26;;;;;;;306.92;167.10;;;;;;;;;;5063236;28;20041;-81
2022/01/05 06:54:11;;;;;;;282.10;152.65;;;;;;;;;;5061833;28;20036;-80
2022/01/05 06:56:56;;;;;;;275.27;136.55;;;;;;;;;;5054977;28;20041;-80
2022/01/05 06:59:42;;;;;;;390.58;171.00;;;;;;;;;;5058698;28;20046;-80
2022/01/05 07:02:28;;;;;;;281.15;135.75;;;;;;;;;;5054999;28;20041;-80
2022/01/05 07:05:13;;;;;;;263.60;128.73;;;;;;;;;;5062715;28;20049;-78
2022/01/05 07:07:59;;;;;;;231.85;122.60;;;;;;;;;;5054520;28;20045;-80
2022/01/05 07:10:45;;;;;;;235.02;128.60;;;;;;;;;;5056163;28;20045;-81
2022/01/05 07:13:30;;;;;;;279.95;148.70;;;;;;;;;;5046906;28;20048;-80
2022/01/05 07:16:15;;;;;;;277.67;150.43;;;;;;;;;;5055405;28;20045;-81
2022/01/05 07:19:01;;;;;;;273.27;141.80;;;;;;;;;;5052694;28;20041;-80
2022/01/05 07:21:47;;;;;;;231.40;125.20;;;;;;;;;;5042575;28;20045;-80
2022/01/05 07:24:32;;;;;;;210.63;116.35;;;;;;;;;;5035151;28;20046;-80
2022/01/05 07:27:18;;;;;;;219.10;113.95;;;;;;;;;;5035772;28;20045;-80
2022/01/05 07:30:05;;;;;;;213.88;123.88;;;;;;;;;;5053267;28;20481;-80
2022/01/05 07:32:50;;;;;;;220.50;119.85;;;;;;;;;;5042431;28;20034;-79
2022/01/05 07:35:36;;;;;;;201.82;109.57;;;;;;;;;;5056248;28;20067;-80
2022/01/05 07:38:21;;;;;;;212.57;117.45;;;;;;;;;;5035090;28;20057;-79
2022/01/05 07:41:07;;;;;;;216.70;116.93;;;;;;;;;;5042082;28;20080;-79
2022/01/05 07:43:52;;;;;;;226.90;123.18;;;;;;;;;;5026966;28;20489;-80
2022/01/05 07:46:37;;;;;;;228.73;125.03;;;;;;;;;;5035595;28;20053;-79
2022/01/05 07:49:23;;;;;;;230.27;125.57;;;;;;;;;;5041355;28;20045;-80
2022/01/05 07:52:08;;;;;;;208.05;117.85;;;;;;;;;;5040652;28;20037;-80
2022/01/05 07:54:54;;;;;;;185.82;104.30;;;;;;;;;;5039913;28;20480;-79
2022/01/05 07:57:39;;;;;;;192.65;110.60;;;;;;;;;;5061646;28;20053;-79
2022/01/05 08:00:25;;;;;;;148.15;79.45;;;;;;;;;;5056841;28;20057;-79
2022/01/05 08:03:10;;;;;;;72.22;39.42;;;;;;;;;;5041604;28;20041;-79
2022/01/05 08:05:55;;;;;;;70.50;37.95;;;;;;;;;;5044742;28;20489;-80
2022/01/05 08:08:42;;;;;;;52.88;26.95;;;;;;;;;;5060026;28;20045;-79
2022/01/05 08:11:27;;;;;;;47.83;27.38;;;;;;;;;;5045531;28;20046;-78
2022/01/05 08:14:13;;;;;;;50.53;30.60;;;;;;;;;;5041431;28;20046;-80
2022/01/05 08:16:58;;;;;;;51.60;29.98;;;;;;;;;;5041277;28;20045;-80
2022/01/05 08:19:44;;;;;;;60.92;34.90;;;;;;;;;;5045984;28;20053;-79
2022/01/05 08:22:30;;;;;;;54.00;31.42;;;;;;;;;;5049667;28;20041;-80
2022/01/05 08:25:20;;;;;;;48.33;27.65;;;;;;;;;;5054716;28;20049;-81
2022/01/05 08:28:08;;;;;;;45.53;26.92;;;;;;;;;;5061096;28;20053;-79
2022/01/05 08:30:53;;;;;;;47.88;29.25;;;;;;;;;;5046540;28;20388;-80
2022/01/05 08:33:38;;;;;;;31.25;18.42;;;;;;;;;;5060467;28;20128;-79
2022/01/05 08:36:24;;;;;;;48.35;30.50;;;;;;;;;;5061112;28;20415;-79
2022/01/05 08:39:09;;;;;;;68.13;35.35;;;;;;;;;;5057347;28;20053;-80
2022/01/05 08:41:55;;;;;;;49.20;30.45;;;;;;;;;;5053844;28;20037;-81
2022/01/05 08:44:40;;;;;;;40.90;23.92;;;;;;;;;;5036003;28;20500;-80
2022/01/05 08:47:25;;;;;;;31.88;19.40;;;;;;;;;;5040760;28;20049;-79
2022/01/05 08:50:10;;;;;;;41.63;26.60;;;;;;;;;;5044064;28;20086;-80
2022/01/05 08:52:57;;;;;;;43.17;24.60;;;;;;;;;;5044613;28;20108;-79
2022/01/05 08:55:45;;;;;;;58.40;33.20;;;;;;;;;;5041706;28;20041;-80
2022/01/05 08:58:30;;;;;;;66.38;34.58;;;;;;;;;;5036707;28;20049;-79
2022/01/05 09:01:16;;;;;;;43.58;26.00;;;;;;;;;;5035686;28;20045;-80
2022/01/05 09:04:02;;;;;;;36.33;22.35;;;;;;;;;;5039994;28;20045;-81
2022/01/05 09:06:47;;;;;;;37.47;21.77;;;;;;;;;;5040144;28;20053;-78
2022/01/05 09:09:33;;;;;;;34.50;19.83;;;;;;;;;;5033378;28;20042;-80
2022/01/05 09:12:19;;;;;;;36.17;17.20;;;;;;;;;;5039960;28;20045;-78
2022/01/05 09:15:04;;;;;;;44.17;25.10;;;;;;;;;;5039921;28;20045;-80
2022/01/05 09:17:50;;;;;;;39.90;24.23;;;;;;;;;;5040244;28;20050;-81
2022/01/05 09:20:35;;;;;;;38.47;24.00;;;;;;;;;;5040501;28;20045;-80
2022/01/05 09:23:21;;;;;;;37.17;23.50;;;;;;;;;;5039556;28;20049;-81
2022/01/05 09:26:06;;;;;;;33.47;20.92;;;;;;;;;;5040069;28;20405;-80
2022/01/05 09:28:52;;;;;;;44.53;22.70;;;;;;;;;;5040065;28;20041;-79
2022/01/05 09:31:38;;;;;;;36.30;22.75;;;;;;;;;;5040448;28;20054;-80
2022/01/05 09:34:23;;;;;;;37.40;20.98;;;;;;;;;;5039956;28;20049;-80
2022/01/05 09:37:35;;;;;;;33.47;19.60;;;;;;;;;;5033182;28;20053;-79
2022/01/05 09:43:21;;;;;;;28.20;16.40;;;;;;;;;;5043582;28;20053;-79
2022/01/05 09:46:31;;;;;;;31.35;19.38;;;;;;;;;;5044031;28;20049;-78
2022/01/05 09:49:38;;;;;;;24.48;15.40;;;;;;;;;;5043706;28;20049;-79
2022/01/05 09:52:24;;;;;;;23.23;14.20;;;;;;;;;;5047009;28;20045;-79
2022/01/05 09:55:11;;;;;;;24.45;15.32;;;;;;;;;;5039775;28;20041;-78
2022/01/05 09:57:56;;;;;;;21.80;12.43;;;;;;;;;;5044352;28;20053;-78
2022/01/05 10:00:42;;;;;;;24.42;15.43;;;;;;;;;;5037882;28;20049;-79
2022/01/05 10:03:28;;;;;;;22.05;14.65;;;;;;;;;;5043721;28;20047;-79
2022/01/05 10:06:13;;;;;;;20.00;13.23;;;;;;;;;;5036968;28;20064;-79
2022/01/05 10:08:59;;;;;;;27.42;17.80;;;;;;;;;;5043694;28;20041;-80
2022/01/05 10:11:44;;;;;;;28.35;18.15;;;;;;;;;;5036816;28;20049;-80
2022/01/05 10:14:30;;;;;;;25.25;14.55;;;;;;;;;;5043548;28;20045;-78
2022/01/05 10:17:29;;;;;;;27.13;16.30;;;;;;;;;;5027978;28;20093;-80
2022/01/05 10:20:15;;;;;;;27.45;15.65;;;;;;;;;;5043938;28;20049;-80
2022/01/05 10:23:01;;;;;;;23.70;13.68;;;;;;;;;;5043803;28;20045;-78
2022/01/05 10:25:46;;;;;;;25.60;14.73;;;;;;;;;;5043020;28;20057;-80
2022/01/05 10:28:32;;;;;;;19.00;11.35;;;;;;;;;;5037057;28;20049;-80
2022/01/05 10:31:32;;;;;;;15.43;9.13;;;;;;;;;;5042941;28;20404;-79
2022/01/05 10:34:22;;;;;;;13.88;6.95;;;;;;;;;;5043011;28;20049;-80
2022/01/05 10:37:08;;;;;;;17.08;10.48;;;;;;;;;;5043587;28;20049;-78
2022/01/05 10:40:22;;;;;;;17.75;10.75;;;;;;;;;;5036803;28;20372;-80
2022/01/05 10:43:10;;;;;;;16.38;9.02;;;;;;;;;;5036419;28;20042;-80
2022/01/05 10:45:55;;;;;;;16.50;8.48;;;;;;;;;;5042473;28;20050;-79
2022/01/05 10:48:41;;;;;;;18.88;10.10;;;;;;;;;;5042633;28;20045;-79
2022/01/05 10:51:31;;;;;;;43.83;20.95;;;;;;;;;;5036736;28;20041;-79
2022/01/05 10:54:22;;;;;;;21.95;13.45;;;;;;;;;;5042265;28;20045;-78
2022/01/05 10:57:09;;;;;;;24.48;14.48;;;;;;;;;;5042916;28;20053;-78
2022/01/05 10:59:55;;;;;;;34.47;20.27;;;;;;;;;;5042642;28;20049;-79
2022/01/05 11:02:40;;;;;;;20.52;11.90;;;;;;;;;;5043518;28;20046;-80
2022/01/05 11:05:26;;;;;;;17.17;10.48;;;;;;;;;;5043048;28;20480;-80
2022/01/05 11:08:12;;;;;;;18.30;11.95;;;;;;;;;;5043090;28;20041;-80
2022/01/05 11:10:57;;;;;;;19.05;11.35;;;;;;;;;;5036460;28;20045;-83
2022/01/05 11:13:53;;;;;;;16.95;11.23;;;;;;;;;;5042478;28;20041;-80
2022/01/05 11:16:43;;;;;;;20.90;12.05;;;;;;;;;;5043141;28;20484;-79
2022/01/05 11:19:30;;;;;;;19.17;11.10;;;;;;;;;;5042938;28;20057;-79
2022/01/05 11:22:17;;;;;;;22.00;11.85;;;;;;;;;;5035539;28;20041;-79
2022/01/05 11:25:03;;;;;;;46.70;26.42;;;;;;;;;;5035678;28;20065;-79
2022/01/05 11:27:50;;;;;;;27.67;17.13;;;;;;;;;;5041747;28;20049;-80
2022/01/05 11:30:36;;;;;;;15.05;8.35;;;;;;;;;;5035496;28;20485;-81
2022/01/05 11:33:23;;;;;;;23.67;12.60;;;;;;;;;;5042301;28;20045;-80
2022/01/05 11:36:08;;;;;;;16.15;8.85;;;;;;;;;;5041444;28;20049;-80
2022/01/05 11:38:53;;;;;;;14.32;8.63;;;;;;;;;;5039470;28;20461;-79
2022/01/05 11:41:46;;;;;;;18.27;10.93;;;;;;;;;;5041907;28;20396;-80
2022/01/05 11:44:44;;;;;;;14.93;8.60;;;;;;;;;;5041933;28;20396;-80
2022/01/05 11:47:30;;;;;;;11.35;6.65;;;;;;;;;;5041653;28;20049;-79
2022/01/05 11:50:24;;;;;;;13.75;7.68;;;;;;;;;;5041442;28;20041;-80
2022/01/05 11:53:10;;;;;;;;;;;;;;;;;;5042786;28;20042;-79
2022/01/05 11:55:58;;;;;;;26.63;15.23;;;;;;;;;;5041501;28;20359;-78
2022/01/05 11:58:56;;;;;;;86.63;55.30;;;;;;;;;;5042515;28;20392;-79
2022/01/05 12:01:43;;;;;;;13.13;9.13;;;;;;;;;;5041998;28;20045;-79
2022/01/05 12:04:30;;;;;;;15.50;10.20;;;;;;;;;;5033973;28;20049;-79
2022/01/05 12:07:16;;;;;;;17.30;9.95;;;;;;;;;;5041748;28;20045;-79
2022/01/05 12:10:16;;;;;;;17.05;8.93;;;;;;;;;;5041529;28;20045;-80
2022/01/05 12:13:07;;;;;;;15.23;9.38;;;;;;;;;;5041867;28;20511;-80
2022/01/05 12:15:59;;;;;;;15.35;8.02;;;;;;;;;;5041478;28;20053;-79
2022/01/05 12:19:01;;;;;;;19.70;11.80;;;;;;;;;;5034548;28;20041;-79
2022/01/05 12:21:49;;;;;;;14.60;9.27;;;;;;;;;;5040584;28;20049;-78
2022/01/05 12:24:53;;;;;;;23.67;10.80;;;;;;;;;;5041868;28;20477;-78
2022/01/05 12:27:50;;;;;;;14.55;8.52;;;;;;;;;;5034680;28;20057;-79
2022/01/05 12:30:37;;;;;;;19.33;12.13;;;;;;;;;;5034546;28;20038;-79
2022/01/05 12:33:24;;;;;;;16.55;9.95;;;;;;;;;;5041121;28;20047;-79
2022/01/05 12:36:11;;;;;;;23.05;12.90;;;;;;;;;;5040555;28;20476;-79
2022/01/05 12:38:56;;;;;;;24.52;15.20;;;;;;;;;;5037711;28;20046;-78
2022/01/05 12:41:44;;;;;;;35.80;19.27;;;;;;;;;;5042336;28;20050;-81
2022/01/05 12:44:32;;;;;;;24.10;12.45;;;;;;;;;;5037448;28;20038;-79
2022/01/05 12:47:35;;;;;;;16.40;11.23;;;;;;;;;;5037085;28;20045;-79
2022/01/05 12:50:31;;;;;;;17.38;9.93;;;;;;;;;;5044327;28;20045;-80
2022/01/05 12:53:34;;;;;;;19.77;11.73;;;;;;;;;;5035385;28;20477;-80
2022/01/05 12:56:24;;;;;;;32.38;21.23;;;;;;;;;;5040837;28;20045;-80
2022/01/05 12:59:31;;;;;;;59.40;29.60;;;;;;;;;;5042355;28;20045;-80
2022/01/05 13:02:23;;;;;;;60.13;33.38;;;;;;;;;;5034525;28;20045;-79
2022/01/05 13:05:09;;;;;;;62.67;32.13;;;;;;;;;;5041031;28;20054;-81
2022/01/05 13:07:55;;;;;;;66.97;37.45;;;;;;;;;;5041435;28;20037;-80
2022/01/05 13:10:43;;;;;;;70.18;34.35;;;;;;;;;;5040605;28;20116;-80
2022/01/05 13:13:29;;;;;;;61.15;33.35;;;;;;;;;;5040728;28;20045;-80
2022/01/05 13:16:14;;;;;;;62.25;32.78;;;;;;;;;;5039236;28;20042;-79
2022/01/05 13:19:00;;;;;;;72.68;34.72;;;;;;;;;;5040719;28;20049;-80
2022/01/05 13:21:48;;;;;;;59.10;31.80;;;;;;;;;;5040904;28;20049;-79
2022/01/05 13:24:45;;;;;;;47.47;27.40;;;;;;;;;;5033266;28;20414;-80
2022/01/05 13:27:42;;;;;;;44.20;26.05;;;;;;;;;;5033984;28;20049;-82
2022/01/05 13:30:29;;;;;;;45.85;25.40;;;;;;;;;;5033637;28;20041;-80
2022/01/05 13:33:15;;;;;;;47.50;26.08;;;;;;;;;;5040093;28;20045;-81
2022/01/05 13:36:05;;;;;;;52.42;29.85;;;;;;;;;;5039940;28;20049;-81
2022/01/05 13:38:50;;;;;;;48.97;29.58;;;;;;;;;;5036835;28;20053;-81
2022/01/05 13:41:36;;;;;;;47.45;27.92;;;;;;;;;;5033880;28;20049;-82
2022/01/05 13:44:21;;;;;;;52.78;27.70;;;;;;;;;;5018807;28;20045;-82
2022/01/05 13:47:10;;;;;;;59.25;32.42;;;;;;;;;;5033710;28;20053;-80
2022/01/05 13:50:18;;;;;;;76.40;40.47;;;;;;;;;;5040586;28;20053;-80
2022/01/05 13:53:08;;;;;;;78.18;42.88;;;;;;;;;;5039721;28;20049;-81
2022/01/05 13:56:05;;;;;;;64.32;36.20;;;;;;;;;;5040129;28;20484;-81
2022/01/05 13:58:54;;;;;;;73.70;42.28;;;;;;;;;;5047005;28;20037;-81
2022/01/05 14:01:44;;;;;;;52.30;31.10;;;;;;;;;;5048465;28;20037;-80
2022/01/05 14:04:30;;;;;;;65.93;34.75;;;;;;;;;;5046609;28;20403;-80
2022/01/05 14:07:19;;;;;;;70.25;36.30;;;;;;;;;;5044818;28;20049;-80
2022/01/05 14:10:09;;;;;;;70.88;35.95;;;;;;;;;;5059630;28;20408;-82
2022/01/05 14:13:01;;;;;;;67.82;31.35;;;;;;;;;;5052994;28;20037;-80
2022/01/05 14:15:56;;;;;;;58.75;33.03;;;;;;;;;;5043667;28;20041;-79
2022/01/05 14:18:43;;;;;;;59.92;34.13;;;;;;;;;;5034236;28;20049;-79
2022/01/05 14:21:31;;;;;;;65.05;33.92;;;;;;;;;;5042125;28;20053;-80
2022/01/05 14:24:28;;;;;;;92.53;50.25;;;;;;;;;;5042178;28;20049;-79
2022/01/05 14:27:17;;;;;;;113.13;57.00;;;;;;;;;;5042363;28;20057;-78
2022/01/05 14:30:11;;;;;;;127.28;60.28;;;;;;;;;;5045215;28;20049;-81
2022/01/05 14:32:56;;;;;;;94.75;51.03;;;;;;;;;;5061599;28;20052;-80
2022/01/05 14:35:48;;;;;;;103.22;52.25;;;;;;;;;;5038061;28;20039;-78
2022/01/05 14:38:34;;;;;;;104.47;51.08;;;;;;;;;;5040805;28;20053;-79
2022/01/05 14:41:20;;;;;;;97.13;54.00;;;;;;;;;;5048558;28;20041;-81
2022/01/05 14:44:06;;;;;;;127.05;67.97;;;;;;;;;;5052623;28;20072;-83
2022/01/05 14:46:57;;;;;;;143.02;65.82;;;;;;;;;;5048825;28;20045;-79
2022/01/05 14:49:42;;;;;;;147.85;68.93;;;;;;;;;;5058710;28;20472;-80
2022/01/05 14:52:32;;;;;;;154.93;75.65;;;;;;;;;;5063000;28;20049;-77
2022/01/05 14:55:18;;;;;;;132.32;66.75;;;;;;;;;;5055929;28;20041;-81
2022/01/05 14:58:03;;;;;;;102.38;51.53;;;;;;;;;;5049675;28;20053;-79
2022/01/05 15:00:49;;;;;;;106.32;57.20;;;;;;;;;;5057171;28;20041;-81
2022/01/05 15:03:35;;;;;;;155.98;80.85;;;;;;;;;;5061435;28;20472;-81
2022/01/05 15:06:20;;;;;;;115.00;65.95;;;;;;;;;;5060626;28;20472;-77
2022/01/05 15:09:08;;;;;;;91.40;51.25;;;;;;;;;;5055611;28;20045;-81
2022/01/05 15:11:56;;;;;;;101.40;60.22;;;;;;;;;;5041142;28;20041;-80
2022/01/05 15:14:43;;;;;;;120.50;59.33;;;;;;;;;;5058482;28;20049;-80
2022/01/05 15:17:28;;;;;;;115.07;60.80;;;;;;;;;;5054913;28;20044;-78
2022/01/05 15:20:16;;;;;;;125.18;64.78;;;;;;;;;;5062974;28;20504;-79
2022/01/05 15:23:01;;;;;;;138.40;74.40;;;;;;;;;;5046241;28;20049;-80
2022/01/05 15:25:47;;;;;;;137.10;77.13;;;;;;;;;;5058806;28;20060;-82
2022/01/05 15:28:33;;;;;;;145.32;77.93;;;;;;;;;;5058078;28;20033;-79
2022/01/05 15:31:20;;;;;;;163.93;81.07;;;;;;;;;;5059252;28;20041;-81
2022/01/05 15:34:06;;;;;;;172.20;96.35;;;;;;;;;;5063420;28;20377;-80
2022/01/05 15:36:51;;;;;;;171.38;96.10;;;;;;;;;;5055397;28;20429;-79
2022/01/05 15:39:39;;;;;;;153.75;85.70;;;;;;;;;;5055647;28;20052;-79
2022/01/05 15:42:24;;;;;;;150.20;85.28;;;;;;;;;;5062105;28;20044;-81
2022/01/05 15:45:11;;;;;;;188.55;94.68;;;;;;;;;;5055339;28;20392;-79
2022/01/05 15:47:56;;;;;;;226.35;117.28;;;;;;;;;;5061952;28;20049;-81
2022/01/05 15:50:41;;;;;;;286.38;147.07;;;;;;;;;;5061300;28;20480;-80
2022/01/05 15:53:27;;;;;;;259.40;144.13;;;;;;;;;;5061613;28;20384;-79
2022/01/05 15:56:19;;;;;;;306.40;163.13;;;;;;;;;;5055134;28;20049;-80
2022/01/05 16:02:09;;;;;;;242.48;128.38;;;;;;;;;;5061802;28;20057;-79
2022/01/05 16:04:54;;;;;;;247.93;142.05;;;;;;;;;;5054521;28;20053;-80